KDRT/DRT METAR and TAF weather

Enter ICAO airport designator
Station Type Date Time Source
KDRT METAR 2018/01/23 00:53 UTC NOAA

KDRT 230053Z AUTO 00000KT 10SM CLR 13/M09 A3013 RMK AO2 SLP198 T01331094


Station Type Date Time Source
KDRT Decoded METAR 2018/01/23 00:53 UTC NOAA

DEL RIO INTERNATIONAL AIRPORT, TX, United States (KDRT) 29-22N 100-55W 313M
Jan 22, 2018 - 07:53 PM EST / 2018.01.23 0053 UTC
Wind: Calm:0
Visibility: 10 mile(s):0
Sky conditions: clear
Temperature: 55.9 F (13.3 C)
Dew Point: 15.1 F (-9.4 C)
Relative Humidity: 19%
Pressure (altimeter): 30.13 in. Hg (1020 hPa)
ob: KDRT 230053Z AUTO 00000KT 10SM CLR 13/M09 A3013 RMK AO2 SLP198 T01331094
cycle: 1

Station Type Date Time Source
KDRT TAF 2018/01/22 18:22 UTC NOAA

TAF KDRT 221720Z 2218/2318 33012G22KT P6SM SKC
FM230000 35005KT P6SM FEW250


Example: see airport list